Time;durP1;ratioP1;P1;durP2;ratioP2;P2;SDS_P1;SDS_P2;PMS_P1;PMS_P2;Temp;Humidity;BMP_temperature;BMP_pressure;BME280_temperature;BME280_humidity;BME280_pressure;Samples;Min_cycle;Max_cycle;Signal;HPM_P1;HPM_P2
2023/04/21 00:00:50;;;;;;;32.13;18.70;;;9.20;99.90;;;;;;5093694;28;20040;-81
2023/04/21 00:03:18;;;;;;;37.50;20.83;;;9.10;99.90;;;;;;5093514;28;20044;-81
2023/04/21 00:05:44;;;;;;;34.00;18.65;;;9.10;99.90;;;;;;5093286;28;20418;-81
2023/04/21 00:08:10;;;;;;;34.00;21.27;;;9.20;99.90;;;;;;5093539;28;20040;-81
2023/04/21 00:10:35;;;;;;;38.58;19.75;;;9.10;99.90;;;;;;5092323;28;20044;-81
2023/04/21 00:13:01;;;;;;;34.25;19.60;;;9.10;99.90;;;;;;5093372;28;20387;-81
2023/04/21 00:15:27;;;;;;;38.60;20.55;;;9.10;99.90;;;;;;5093310;28;20037;-81
2023/04/21 00:17:52;;;;;;;36.08;21.23;;;9.10;99.90;;;;;;5093353;28;20040;-81
2023/04/21 00:20:18;;;;;;;31.40;20.50;;;9.00;99.90;;;;;;5093407;28;20046;-81
2023/04/21 00:22:44;;;;;;;32.13;21.33;;;9.00;99.90;;;;;;5092980;28;20117;-81
2023/04/21 00:25:13;;;;;;;32.85;21.50;;;9.00;99.90;;;;;;5091993;28;20499;-81
2023/04/21 00:27:39;;;;;;;32.67;19.98;;;9.00;99.90;;;;;;5093260;28;20504;-81
2023/04/21 00:30:05;;;;;;;36.92;19.85;;;9.00;99.90;;;;;;5093352;28;20479;-81
2023/04/21 00:32:31;;;;;;;39.13;20.63;;;9.00;99.90;;;;;;5093217;28;20403;-81
2023/04/21 00:34:57;;;;;;;35.88;22.08;;;8.90;99.90;;;;;;5092921;28;20044;-81
2023/04/21 00:37:22;;;;;;;42.05;21.20;;;8.90;99.90;;;;;;5092120;28;20472;-81
2023/04/21 00:39:48;;;;;;;36.65;22.48;;;8.90;99.90;;;;;;5092674;28;20109;-81
2023/04/21 00:42:16;;;;;;;38.30;22.00;;;8.80;99.90;;;;;;5092230;28;20387;-80
2023/04/21 00:44:42;;;;;;;43.15;24.65;;;8.80;99.90;;;;;;5093016;28;20391;-82
2023/04/21 00:47:08;;;;;;;39.50;23.27;;;8.80;99.90;;;;;;5091748;28;20040;-81
2023/04/21 00:49:34;;;;;;;42.35;22.75;;;8.80;99.90;;;;;;5093607;28;20035;-82
2023/04/21 00:52:00;;;;;;;37.97;22.90;;;8.80;99.90;;;;;;5096852;28;20058;-82
2023/04/21 00:54:26;;;;;;;34.67;23.75;;;8.80;99.90;;;;;;5096634;28;20050;-82
2023/04/21 00:56:52;;;;;;;39.00;24.15;;;8.80;99.90;;;;;;5096764;28;20105;-82
2023/04/21 00:59:18;;;;;;;39.40;24.77;;;8.80;99.90;;;;;;5095628;28;20076;-82
2023/04/21 01:01:43;;;;;;;38.60;23.13;;;8.80;99.90;;;;;;5096600;28;20086;-82
2023/04/21 01:04:09;;;;;;;42.28;23.33;;;8.80;99.90;;;;;;5096487;28;20036;-81
2023/04/21 01:06:35;;;;;;;41.75;24.75;;;8.70;99.90;;;;;;5095121;28;20076;-81
2023/04/21 01:09:01;;;;;;;44.90;25.70;;;8.70;99.90;;;;;;5096393;28;20043;-82
2023/04/21 01:11:27;;;;;;;43.55;23.45;;;8.70;99.90;;;;;;5096397;28;20119;-82
2023/04/21 01:13:54;;;;;;;39.80;23.45;;;8.70;99.90;;;;;;5094994;28;20078;-82
2023/04/21 01:16:21;;;;;;;43.47;24.73;;;8.70;99.90;;;;;;5096327;28;20043;-82
2023/04/21 01:18:47;;;;;;;39.85;23.90;;;8.70;99.90;;;;;;5096378;28;20063;-82
2023/04/21 01:21:14;;;;;;;38.80;26.20;;;8.70;99.90;;;;;;5096172;28;20487;-81
2023/04/21 01:23:40;;;;;;;39.92;23.27;;;8.70;99.90;;;;;;5095869;28;20505;-81
2023/04/21 01:26:06;;;;;;;47.97;24.25;;;8.70;99.90;;;;;;5096138;28;20101;-81
2023/04/21 01:28:32;;;;;;;42.65;25.92;;;8.70;99.90;;;;;;5095974;28;20123;-81
2023/04/21 01:30:58;;;;;;;43.05;24.25;;;8.70;99.90;;;;;;5095739;28;20124;-81
2023/04/21 01:33:24;;;;;;;44.78;23.75;;;8.70;99.90;;;;;;5095980;28;20048;-81
2023/04/21 01:35:50;;;;;;;39.88;24.10;;;8.70;99.90;;;;;;5094460;28;20502;-81
2023/04/21 01:38:19;;;;;;;40.88;24.73;;;8.70;99.90;;;;;;5095808;28;20115;-81
2023/04/21 01:40:50;;;;;;;39.88;24.88;;;8.70;99.90;;;;;;5095811;28;20044;-81
2023/04/21 01:43:18;;;;;;;46.55;25.00;;;8.60;99.90;;;;;;5095724;28;20093;-81
2023/04/21 01:45:43;;;;;;;46.72;24.92;;;8.60;99.90;;;;;;5095734;28;20044;-81
2023/04/21 01:48:09;;;;;;;41.97;23.98;;;8.60;99.90;;;;;;5095541;28;20044;-81
2023/04/21 01:50:35;;;;;;;42.88;22.42;;;8.60;99.90;;;;;;5095635;28;20036;-81
2023/04/21 01:53:01;;;;;;;41.22;20.83;;;8.60;99.90;;;;;;5095563;28;20046;-81
2023/04/21 01:55:26;;;;;;;41.53;25.38;;;8.60;99.90;;;;;;5095500;28;20071;-81
2023/04/21 01:57:52;;;;;;;37.20;21.35;;;8.60;99.90;;;;;;5095486;28;20391;-81
2023/04/21 02:00:18;;;;;;;40.60;24.10;;;8.60;99.90;;;;;;5093890;28;20474;-81
2023/04/21 02:02:44;;;;;;;37.90;23.33;;;8.50;99.90;;;;;;5095410;28;20119;-81
2023/04/21 02:05:09;;;;;;;46.90;23.88;;;8.50;99.90;;;;;;5095461;28;20368;-82
2023/04/21 02:07:35;;;;;;;42.30;24.25;;;8.60;99.90;;;;;;5095200;28;20077;-82
2023/04/21 02:10:01;;;;;;;42.75;25.92;;;8.50;99.90;;;;;;5094058;28;20052;-81
2023/04/21 02:12:26;;;;;;;43.67;25.30;;;8.50;99.90;;;;;;5095122;28;20115;-81
2023/04/21 02:14:52;;;;;;;34.78;21.73;;;8.50;99.90;;;;;;5095078;28;20040;-81
2023/04/21 02:17:17;;;;;;;37.95;21.73;;;8.50;99.90;;;;;;5093973;28;20502;-81
2023/04/21 02:19:43;;;;;;;42.50;21.85;;;8.50;99.90;;;;;;5095188;28;20067;-81
2023/04/21 02:22:11;;;;;;;38.22;21.98;;;8.50;99.90;;;;;;5093473;28;20051;-82
2023/04/21 02:24:37;;;;;;;44.53;22.80;;;8.50;99.90;;;;;;5094983;28;20072;-81
2023/04/21 02:27:03;;;;;;;42.40;23.40;;;8.50;99.90;;;;;;5094752;28;20719;-82
2023/04/21 02:29:29;;;;;;;39.35;23.20;;;8.50;99.90;;;;;;5095075;28;20116;-82
2023/04/21 02:31:54;;;;;;;37.58;22.60;;;8.40;99.90;;;;;;5094950;28;20372;-82
2023/04/21 02:34:20;;;;;;;40.13;24.02;;;8.40;99.90;;;;;;5093522;28;20047;-82
2023/04/21 02:36:46;;;;;;;36.38;21.52;;;8.50;99.90;;;;;;5094797;28;20517;-82
2023/04/21 02:39:12;;;;;;;37.72;21.98;;;8.50;99.90;;;;;;5094819;28;20064;-82
2023/04/21 02:41:38;;;;;;;39.00;22.42;;;8.40;99.90;;;;;;5095098;28;20056;-82
2023/04/21 02:44:04;;;;;;;38.97;22.20;;;8.50;99.90;;;;;;5093693;28;20369;-82
2023/04/21 02:46:30;;;;;;;37.72;21.52;;;8.50;99.90;;;;;;5094592;28;20491;-82
2023/04/21 02:48:56;;;;;;;41.47;22.73;;;8.50;99.90;;;;;;5094464;28;20043;-82
2023/04/21 02:51:21;;;;;;;36.78;21.40;;;8.40;99.90;;;;;;5094455;28;20040;-82
2023/04/21 02:53:47;;;;;;;39.97;22.92;;;8.50;99.90;;;;;;5094438;28;20032;-82
2023/04/21 02:56:13;;;;;;;36.40;22.25;;;8.40;99.90;;;;;;5094225;28;20490;-82
2023/04/21 02:58:39;;;;;;;39.38;23.17;;;8.40;99.90;;;;;;5093164;28;20502;-81
2023/04/21 03:01:05;;;;;;;36.90;24.90;;;8.40;99.90;;;;;;5094296;28;20032;-81
2023/04/21 03:03:31;;;;;;;35.97;22.77;;;8.50;99.90;;;;;;5094278;28;20046;-81
2023/04/21 03:05:58;;;;;;;38.78;22.42;;;8.40;99.90;;;;;;5094181;28;20051;-82
2023/04/21 03:08:24;;;;;;;37.22;21.67;;;8.40;99.90;;;;;;5094135;28;20048;-82
2023/04/21 03:10:49;;;;;;;40.28;22.10;;;8.40;99.90;;;;;;5093958;28;20403;-82
2023/04/21 03:13:16;;;;;;;36.17;21.63;;;8.40;99.90;;;;;;5093355;28;20131;-82
2023/04/21 03:15:41;;;;;;;34.42;22.42;;;8.40;99.90;;;;;;5093908;28;20391;-82
2023/04/21 03:18:07;;;;;;;35.10;21.25;;;8.40;99.90;;;;;;5094003;28;20043;-82
2023/04/21 03:20:33;;;;;;;36.30;21.42;;;8.40;99.90;;;;;;5094014;28;20044;-81
2023/04/21 03:23:03;;;;;;;33.80;20.42;;;8.40;99.90;;;;;;5093548;28;20058;-83
2023/04/21 03:25:32;;;;;;;37.50;24.35;;;8.40;99.90;;;;;;5093918;28;20399;-82
2023/04/21 03:27:58;;;;;;;40.22;22.65;;;8.40;99.90;;;;;;5093935;28;20093;-82
2023/04/21 03:30:26;;;;;;;33.10;19.90;;;8.30;99.90;;;;;;5093913;28;20040;-82
2023/04/21 03:32:52;;;;;;;40.85;24.05;;;8.40;99.90;;;;;;5093776;28;20459;-82
2023/04/21 03:35:17;;;;;;;36.05;19.25;;;8.30;99.90;;;;;;5092523;28;20086;-82
2023/04/21 03:37:43;;;;;;;35.10;21.52;;;8.30;99.90;;;;;;5093680;28;20126;-82
2023/04/21 03:40:09;;;;;;;34.60;22.23;;;8.30;99.90;;;;;;5093761;28;20040;-82
2023/04/21 03:42:35;;;;;;;34.28;20.13;;;8.30;99.90;;;;;;5093760;28;20044;-82
2023/04/21 03:45:05;;;;;;;38.15;22.80;;;8.30;99.90;;;;;;5093501;28;20483;-81
2023/04/21 03:47:31;;;;;;;38.38;25.20;;;8.20;99.90;;;;;;5093715;28;20052;-81
2023/04/21 03:49:56;;;;;;;35.33;20.20;;;8.20;99.90;;;;;;5093447;28;20051;-81
2023/04/21 03:52:23;;;;;;;35.90;20.52;;;8.20;99.90;;;;;;5093615;28;20036;-82
2023/04/21 03:54:49;;;;;;;37.78;21.60;;;8.20;99.90;;;;;;5093695;28;20048;-82
2023/04/21 03:57:14;;;;;;;33.33;21.63;;;8.10;99.90;;;;;;5093707;28;20048;-81
2023/04/21 03:59:40;;;;;;;36.42;21.95;;;8.10;99.90;;;;;;5093642;28;20068;-81
2023/04/21 04:02:06;;;;;;;28.38;18.42;;;8.10;99.90;;;;;;5093638;28;20047;-81
2023/04/21 04:04:32;;;;;;;37.60;18.90;;;8.10;99.90;;;;;;5093539;28;20040;-82
2023/04/21 04:06:58;;;;;;;32.30;18.70;;;8.10;99.90;;;;;;5092552;28;20059;-82
2023/04/21 04:09:23;;;;;;;31.20;20.23;;;8.10;99.90;;;;;;5093356;28;20040;-82
2023/04/21 04:11:49;;;;;;;31.10;19.05;;;8.00;99.90;;;;;;5092095;28;20463;-82
2023/04/21 04:14:15;;;;;;;31.00;19.27;;;8.10;99.90;;;;;;5092250;28;20123;-82
2023/04/21 04:16:41;;;;;;;36.50;19.13;;;8.00;99.90;;;;;;5093169;28;20040;-82
2023/04/21 04:19:07;;;;;;;34.17;21.10;;;8.00;99.90;;;;;;5093004;28;20047;-82
2023/04/21 04:21:33;;;;;;;35.35;19.40;;;8.00;99.90;;;;;;5092167;28;20039;-82
2023/04/21 04:24:01;;;;;;;35.60;23.58;;;7.90;99.90;;;;;;5094139;28;20411;-82
2023/04/21 04:26:27;;;;;;;33.35;20.42;;;8.00;99.90;;;;;;5097019;28;20185;-82
2023/04/21 04:28:55;;;;;;;29.02;18.95;;;7.90;99.90;;;;;;5095731;28;20054;-82
2023/04/21 04:31:21;;;;;;;34.15;22.48;;;7.90;99.90;;;;;;5096888;28;20051;-82
2023/04/21 04:33:46;;;;;;;32.28;19.20;;;7.90;99.90;;;;;;5097128;28;20113;-82
2023/04/21 04:36:12;;;;;;;33.00;19.42;;;7.90;99.90;;;;;;5096373;28;20048;-82
2023/04/21 04:38:39;;;;;;;32.47;19.63;;;7.90;99.90;;;;;;5095758;28;20090;-82
2023/04/21 04:41:05;;;;;;;31.65;18.77;;;7.90;99.90;;;;;;5096859;28;20076;-82
2023/04/21 04:43:35;;;;;;;33.50;18.95;;;7.90;99.90;;;;;;5096781;28;20441;-82
2023/04/21 04:46:03;;;;;;;31.17;17.17;;;7.90;99.90;;;;;;5096716;28;20043;-82
2023/04/21 04:48:29;;;;;;;28.88;19.23;;;7.90;99.90;;;;;;5096706;28;20538;-83
2023/04/21 04:50:54;;;;;;;31.75;19.02;;;7.90;99.90;;;;;;5096808;28;20041;-83
2023/04/21 04:53:20;;;;;;;35.00;19.23;;;7.90;99.90;;;;;;5095553;28;20526;-83
2023/04/21 04:55:46;;;;;;;34.20;18.98;;;7.80;99.90;;;;;;5095067;28;20047;-82
2023/04/21 04:58:12;;;;;;;29.73;19.98;;;7.90;99.90;;;;;;5096701;28;20032;-82
2023/04/21 05:00:37;;;;;;;36.33;18.65;;;7.90;99.90;;;;;;5096454;28;20398;-82
2023/04/21 05:03:03;;;;;;;33.10;20.67;;;7.80;99.90;;;;;;5096338;28;20036;-82
2023/04/21 05:05:29;;;;;;;38.17;19.42;;;7.90;99.90;;;;;;5096453;28;20044;-82
2023/04/21 05:07:56;;;;;;;33.72;20.88;;;7.90;99.90;;;;;;5096452;28;20044;-82
2023/04/21 05:10:22;;;;;;;28.48;19.55;;;7.90;99.90;;;;;;5096414;28;20089;-82
2023/04/21 05:12:48;;;;;;;31.17;18.42;;;7.90;99.90;;;;;;5096060;28;20040;-82
2023/04/21 05:15:13;;;;;;;36.45;20.98;;;8.00;99.90;;;;;;5095999;28;20044;-81
2023/04/21 05:17:39;;;;;;;32.10;17.95;;;8.00;99.90;;;;;;5094996;28;20040;-82
2023/04/21 05:20:06;;;;;;;30.20;18.52;;;8.10;99.90;;;;;;5095915;28;20036;-82
2023/04/21 05:22:39;;;;;;;27.73;17.40;;;8.10;99.90;;;;;;5095711;28;20105;-82
2023/04/21 05:25:05;;;;;;;30.63;17.55;;;8.20;99.90;;;;;;5095981;28;20048;-82
2023/04/21 05:27:32;;;;;;;28.70;18.35;;;8.20;99.90;;;;;;5096069;28;20044;-82
2023/04/21 05:29:59;;;;;;;31.30;18.63;;;8.20;99.90;;;;;;5095906;28;20086;-82
2023/04/21 05:32:24;;;;;;;32.80;17.60;;;8.20;99.90;;;;;;5095596;28;20411;-82
2023/04/21 05:34:50;;;;;;;27.67;17.92;;;8.30;99.90;;;;;;5095530;28;20040;-82
2023/04/21 05:37:15;;;;;;;27.73;16.10;;;8.40;99.90;;;;;;5095304;28;20403;-81
2023/04/21 05:39:41;;;;;;;35.13;17.58;;;8.40;99.90;;;;;;5095691;28;20044;-82
2023/04/21 05:42:10;;;;;;;25.65;16.83;;;8.40;99.90;;;;;;5094241;28;20040;-81
2023/04/21 05:44:36;;;;;;;26.15;17.25;;;8.50;99.90;;;;;;5095764;28;20047;-81
2023/04/21 05:47:06;;;;;;;33.60;18.25;;;8.50;99.90;;;;;;5095951;28;20036;-81
2023/04/21 05:49:32;;;;;;;32.72;16.95;;;8.60;99.90;;;;;;5096125;28;20040;-81
2023/04/21 05:51:58;;;;;;;26.33;16.65;;;8.60;99.90;;;;;;5095556;28;20047;-81
2023/04/21 05:54:23;;;;;;;30.13;17.42;;;8.70;99.90;;;;;;5095477;28;20059;-81
2023/04/21 05:56:49;;;;;;;31.95;16.17;;;8.80;99.90;;;;;;5095268;28;20076;-82
2023/04/21 05:59:15;;;;;;;26.13;16.50;;;8.80;99.90;;;;;;5093916;28;20044;-82
2023/04/21 06:01:41;;;;;;;26.20;16.90;;;8.90;99.90;;;;;;5095458;28;20046;-82
2023/04/21 06:04:07;;;;;;;27.20;16.42;;;9.00;99.90;;;;;;5095409;28;20089;-82
2023/04/21 06:06:32;;;;;;;22.75;14.73;;;9.00;99.90;;;;;;5094070;28;20052;-81
2023/04/21 06:08:58;;;;;;;27.73;14.98;;;9.10;99.90;;;;;;5095120;28;20040;-81
2023/04/21 06:11:23;;;;;;;26.73;15.63;;;9.20;99.90;;;;;;5095087;28;20139;-81
2023/04/21 06:13:51;;;;;;;29.08;16.70;;;9.20;99.90;;;;;;5095137;28;20098;-82
2023/04/21 06:16:17;;;;;;;28.33;16.23;;;9.30;99.90;;;;;;5095067;28;20047;-81
2023/04/21 06:18:42;;;;;;;23.23;14.82;;;9.30;99.90;;;;;;5094282;28;20044;-81
2023/04/21 06:21:09;;;;;;;26.45;15.40;;;9.40;99.90;;;;;;5095235;28;20044;-80
2023/04/21 06:23:35;;;;;;;25.48;17.60;;;9.50;99.90;;;;;;5094577;28;20052;-81
2023/04/21 06:26:05;;;;;;;26.88;16.67;;;9.60;99.90;;;;;;5094592;28;20178;-82
2023/04/21 06:28:36;;;;;;;27.58;15.98;;;9.70;99.90;;;;;;5093554;28;20128;-82
2023/04/21 06:31:02;;;;;;;31.25;15.70;;;9.80;99.90;;;;;;5094811;28;20051;-82
2023/04/21 06:33:29;;;;;;;25.52;14.80;;;9.80;99.90;;;;;;5094751;28;20174;-83
2023/04/21 06:35:54;;;;;;;24.73;14.15;;;10.00;99.90;;;;;;5092211;28;20048;-83
2023/04/21 06:38:21;;;;;;;21.52;14.27;;;10.10;99.90;;;;;;5084669;28;20041;-82
2023/04/21 06:40:46;;;;;;;23.17;13.10;;;10.20;99.90;;;;;;5074208;28;20045;-91
2023/04/21 06:43:12;;;;;;;22.35;13.20;;;10.20;99.90;;;;;;5072719;28;20036;-83
2023/04/21 06:45:38;;;;;;;24.17;15.13;;;10.30;99.90;;;;;;5074085;28;20047;-82
2023/04/21 06:48:04;;;;;;;23.30;15.35;;;10.20;99.90;;;;;;5073941;28;20033;-82
2023/04/21 06:50:29;;;;;;;25.02;14.95;;;10.30;99.90;;;;;;5073851;28;20111;-83
2023/04/21 06:52:55;;;;;;;27.80;16.42;;;10.40;99.90;;;;;;5072349;28;20381;-84
2023/04/21 06:55:21;;;;;;;25.98;13.93;;;10.40;99.90;;;;;;5072408;28;20049;-81
2023/04/21 06:57:46;;;;;;;26.92;14.75;;;10.40;99.90;;;;;;5073542;28;20041;-81
2023/04/21 07:00:12;;;;;;;23.77;14.73;;;10.50;99.90;;;;;;5073762;28;20040;-82
2023/04/21 07:02:38;;;;;;;24.17;14.82;;;10.60;99.90;;;;;;5073761;28;20040;-82
2023/04/21 07:05:04;;;;;;;26.30;15.00;;;10.70;99.90;;;;;;5072761;28;20131;-81
2023/04/21 07:07:30;;;;;;;23.02;14.65;;;10.80;99.90;;;;;;5073390;28;20050;-81
2023/04/21 07:09:55;;;;;;;25.00;13.80;;;10.90;99.90;;;;;;5073459;28;20049;-82
2023/04/21 07:12:21;;;;;;;28.77;15.30;;;11.00;99.90;;;;;;5073497;28;20090;-81
2023/04/21 07:14:46;;;;;;;22.65;14.02;;;10.90;99.90;;;;;;5072146;28;20045;-84
2023/04/21 07:17:12;;;;;;;23.17;14.90;;;11.00;99.90;;;;;;5072129;28;20045;-82
2023/04/21 07:19:38;;;;;;;24.35;15.63;;;11.10;99.90;;;;;;5073417;28;20040;-82
2023/04/21 07:22:08;;;;;;;23.70;13.85;;;11.30;99.90;;;;;;5073097;28;20048;-80
2023/04/21 07:24:36;;;;;;;21.35;14.30;;;11.50;99.90;;;;;;5073608;28;20449;-80
2023/04/21 07:27:01;;;;;;;20.10;13.70;;;11.60;99.90;;;;;;5073229;28;20049;-81
2023/04/21 07:29:30;;;;;;;27.58;14.77;;;11.70;99.90;;;;;;5073181;28;20550;-80
2023/04/21 07:31:57;;;;;;;21.88;14.48;;;11.80;99.90;;;;;;5073447;28;20088;-81
2023/04/21 07:34:23;;;;;;;23.55;13.85;;;11.90;99.90;;;;;;5073445;28;20051;-81
2023/04/21 07:36:50;;;;;;;22.17;12.95;;;12.00;99.90;;;;;;5072008;28;20051;-81
2023/04/21 07:39:16;;;;;;;21.77;13.63;;;12.10;99.90;;;;;;5073553;28;20047;-81
2023/04/21 07:41:42;;;;;;;21.83;14.40;;;12.20;99.90;;;;;;5073576;28;20040;-81
2023/04/21 07:44:08;;;;;;;20.98;13.23;;;12.30;99.90;;;;;;5073515;28;20070;-80
2023/04/21 07:46:34;;;;;;;17.73;12.60;;;12.50;99.90;;;;;;5073316;28;20566;-80
2023/04/21 07:49:00;;;;;;;21.35;12.95;;;12.70;99.90;;;;;;5073600;28;20120;-80
2023/04/21 07:51:29;;;;;;;20.40;13.27;;;12.90;99.90;;;;;;5072027;28;20392;-81
2023/04/21 07:53:54;;;;;;;22.48;13.63;;;12.80;99.90;;;;;;5073193;28;20041;-79
2023/04/21 07:56:20;;;;;;;24.35;13.65;;;13.00;99.90;;;;;;5073365;28;20368;-81
2023/04/21 07:58:46;;;;;;;19.38;13.10;;;13.20;99.90;;;;;;5074314;28;20083;-81
2023/04/21 08:01:12;;;;;;;20.58;12.80;;;13.30;99.90;;;;;;5077550;28;20549;-84
2023/04/21 08:03:37;;;;;;;19.23;11.80;;;13.20;99.90;;;;;;5077307;28;20549;-80
2023/04/21 08:06:03;;;;;;;17.20;12.02;;;13.40;99.90;;;;;;5077105;28;20112;-80
2023/04/21 08:08:29;;;;;;;21.45;13.30;;;13.50;99.90;;;;;;5077094;28;20056;-80
2023/04/21 08:10:55;;;;;;;24.55;14.02;;;13.50;99.90;;;;;;5077332;28;20040;-80
2023/04/21 08:13:24;;;;;;;25.88;14.07;;;13.50;99.90;;;;;;5077193;28;20085;-81
2023/04/21 08:15:50;;;;;;;17.67;11.88;;;13.70;99.90;;;;;;5077150;28;20049;-80
2023/04/21 08:18:17;;;;;;;24.67;12.77;;;13.80;99.90;;;;;;5075680;28;20116;-80
2023/04/21 08:20:44;;;;;;;18.48;12.95;;;13.80;99.90;;;;;;5075627;28;20100;-80
2023/04/21 08:23:15;;;;;;;22.42;12.75;;;14.00;99.90;;;;;;5076509;28;20609;-80
2023/04/21 08:25:41;;;;;;;20.90;11.95;;;14.10;99.90;;;;;;5076691;28;20384;-80
2023/04/21 08:28:07;;;;;;;23.67;12.32;;;14.00;99.90;;;;;;5076982;28;20494;-80
2023/04/21 08:30:32;;;;;;;18.80;12.38;;;14.10;99.90;;;;;;5076819;28;20502;-80
2023/04/21 08:32:58;;;;;;;22.58;12.80;;;14.20;99.90;;;;;;5076742;28;20036;-81
2023/04/21 08:35:24;;;;;;;21.02;12.10;;;14.10;99.90;;;;;;5076760;28;20473;-80
2023/04/21 08:37:50;;;;;;;21.70;12.95;;;14.30;99.90;;;;;;5076709;28;20422;-80
2023/04/21 08:40:16;;;;;;;19.10;12.55;;;14.40;99.90;;;;;;5076431;28;20055;-80
2023/04/21 08:42:41;;;;;;;25.08;12.77;;;14.30;99.90;;;;;;5076681;28;20064;-80
2023/04/21 08:45:08;;;;;;;20.83;12.13;;;14.40;99.90;;;;;;5076582;28;20402;-80
2023/04/21 08:47:35;;;;;;;18.73;12.88;;;14.50;99.90;;;;;;5075112;28;20053;-79
2023/04/21 08:50:01;;;;;;;19.08;12.55;;;14.70;99.90;;;;;;5076587;28;20045;-80
2023/04/21 08:52:27;;;;;;;21.30;12.90;;;14.90;99.90;;;;;;5076104;28;20063;-79
2023/04/21 08:54:54;;;;;;;19.75;13.07;;;15.00;99.90;;;;;;5076840;28;20047;-79
2023/04/21 08:57:19;;;;;;;17.33;12.23;;;15.10;99.90;;;;;;5076242;28;20405;-80
2023/04/21 08:59:45;;;;;;;15.32;11.65;;;15.30;99.90;;;;;;5076074;28;20482;-80
2023/04/21 09:02:13;;;;;;;19.92;12.68;;;15.20;99.90;;;;;;5076031;28;20522;-80
2023/04/21 09:04:40;;;;;;;20.17;12.30;;;15.40;99.90;;;;;;5076215;28;20041;-79
2023/04/21 09:07:07;;;;;;;19.70;12.60;;;15.40;99.90;;;;;;5074880;28;20052;-80
2023/04/21 09:09:50;;;;;;;20.85;12.55;;;15.40;99.90;;;;;;5074465;28;20539;-80
2023/04/21 09:12:16;;;;;;;22.10;13.38;;;15.30;99.90;;;;;;5075375;28;20506;-80
2023/04/21 09:14:42;;;;;;;23.58;14.68;;;15.20;99.90;;;;;;5074490;28;20056;-80
2023/04/21 09:17:07;;;;;;;22.05;12.57;;;15.00;99.90;;;;;;5075687;28;20044;-80
2023/04/21 09:19:33;;;;;;;21.83;12.35;;;14.90;99.90;;;;;;5076025;28;20041;-80
2023/04/21 09:22:00;;;;;;;18.00;12.05;;;15.00;99.90;;;;;;5075753;28;20040;-80
2023/04/21 09:24:26;;;;;;;20.30;13.35;;;14.80;99.90;;;;;;5075835;28;20052;-80
2023/04/21 09:26:52;;;;;;;23.35;12.68;;;14.80;99.90;;;;;;5075943;28;20045;-80
2023/04/21 09:29:22;;;;;;;19.67;12.50;;;14.90;99.90;;;;;;5074310;28;20190;-80
2023/04/21 09:31:49;;;;;;;23.27;13.13;;;15.10;99.90;;;;;;5076014;28;20067;-80
2023/04/21 09:34:24;;;;;;;18.92;12.80;;;14.80;99.90;;;;;;5074149;28;20055;-80
2023/04/21 09:37:01;;;;;;;19.63;12.38;;;14.70;99.90;;;;;;5075483;28;20487;-80
2023/04/21 09:39:29;;;;;;;19.63;12.77;;;15.00;99.90;;;;;;5075615;28;20055;-80
2023/04/21 09:41:56;;;;;;;18.10;12.68;;;15.10;99.90;;;;;;5075609;28;20059;-80
2023/04/21 09:44:22;;;;;;;19.20;12.55;;;15.00;99.90;;;;;;5075554;28;20125;-80
2023/04/21 09:46:49;;;;;;;21.63;13.07;;;15.00;99.90;;;;;;5075529;28;20496;-80
2023/04/21 09:49:17;;;;;;;19.15;12.07;;;15.00;99.90;;;;;;5074260;28;20052;-80
2023/04/21 09:51:43;;;;;;;17.23;12.40;;;15.00;99.90;;;;;;5075439;28;20047;-80
2023/04/21 09:54:18;;;;;;;20.98;12.55;;;15.00;99.90;;;;;;5075182;28;20127;-80
2023/04/21 09:56:48;;;;;;;22.35;12.35;;;14.90;99.90;;;;;;5075304;28;20036;-80
2023/04/21 09:59:18;;;;;;;18.85;12.65;;;15.00;99.90;;;;;;5075132;28;20045;-80
2023/04/21 10:01:48;;;;;;;22.65;13.18;;;15.10;99.90;;;;;;5075218;28;20071;-80
2023/04/21 10:04:15;;;;;;;23.98;12.60;;;14.90;99.90;;;;;;5075082;28;20036;-79
2023/04/21 10:06:41;;;;;;;20.67;13.35;;;14.90;99.90;;;;;;5074792;28;20446;-80
2023/04/21 10:09:08;;;;;;;26.05;13.85;;;14.90;99.90;;;;;;5074861;28;20495;-80
2023/04/21 10:11:35;;;;;;;23.77;14.05;;;14.90;99.90;;;;;;5075001;28;20044;-79
2023/04/21 10:14:03;;;;;;;21.80;14.88;;;14.70;99.90;;;;;;5074973;28;20040;-80
2023/04/21 10:16:28;;;;;;;18.08;13.05;;;14.90;99.90;;;;;;5074543;28;20519;-80
2023/04/21 10:18:54;;;;;;;21.10;13.77;;;14.90;99.90;;;;;;5074562;28;20041;-80
2023/04/21 10:21:20;;;;;;;25.50;14.63;;;14.70;99.90;;;;;;5074182;28;20056;-80
2023/04/21 10:23:52;;;;;;;21.80;14.45;;;14.50;99.90;;;;;;5074400;28;20079;-80
2023/04/21 10:26:35;;;;;;;22.15;14.55;;;14.70;99.90;;;;;;5074723;28;20127;-80
2023/04/21 10:29:04;;;;;;;;;;;14.80;99.90;;;;;;5075116;28;20060;-80
2023/04/21 10:31:48;;;;;;;25.00;14.55;;;14.80;99.90;;;;;;5073002;28;20313;-80
2023/04/21 10:34:15;;;;;;;23.40;15.25;;;14.70;99.90;;;;;;5073389;28;20135;-80
2023/04/21 10:36:53;;;;;;;22.88;14.00;;;14.50;99.90;;;;;;5074490;28;20072;-79
2023/04/21 10:39:25;;;;;;;22.58;13.68;;;14.80;99.90;;;;;;5074324;28;20040;-79
2023/04/21 10:41:56;;;;;;;23.88;14.95;;;15.00;99.90;;;;;;5073303;28;20102;-80
2023/04/21 10:44:23;;;;;;;23.25;15.30;;;14.70;99.90;;;;;;5074277;28;20472;-80
2023/04/21 10:46:52;;;;;;;21.42;16.52;;;14.60;99.90;;;;;;5074271;28;20048;-79
2023/04/21 10:49:28;;;;;;;22.75;15.02;;;14.40;99.90;;;;;;5074289;28;20036;-79
2023/04/21 10:52:06;;;;;;;28.33;16.42;;;14.60;99.90;;;;;;5074224;28;20067;-80
2023/04/21 10:54:40;;;;;;;26.58;15.15;;;14.40;99.90;;;;;;5072865;28;20048;-79
2023/04/21 10:57:08;;;;;;;24.55;16.42;;;14.60;99.90;;;;;;5074008;28;20048;-79
2023/04/21 10:59:35;;;;;;;26.08;16.83;;;14.70;99.90;;;;;;5074061;28;20127;-79
2023/04/21 11:02:09;;;;;;;28.35;15.95;;;14.70;99.90;;;;;;5073896;28;20052;-80
2023/04/21 11:04:35;;;;;;;24.33;16.25;;;14.90;99.90;;;;;;5073986;28;20068;-79
2023/04/21 11:07:10;;;;;;;26.67;16.27;;;14.90;99.90;;;;;;5073982;28;20123;-79
2023/04/21 11:09:37;;;;;;;22.77;15.43;;;15.00;99.90;;;;;;5073668;28;20468;-81
2023/04/21 11:12:10;;;;;;;19.38;15.27;;;14.70;99.90;;;;;;5072777;28;20041;-80
2023/04/21 11:14:38;;;;;;;25.02;16.58;;;14.90;99.90;;;;;;5073869;28;20040;-79
2023/04/21 11:17:09;;;;;;;23.75;16.27;;;14.70;99.90;;;;;;5073885;28;20098;-80
2023/04/21 11:19:36;;;;;;;21.23;15.25;;;14.70;99.90;;;;;;5073636;28;20470;-79
2023/04/21 11:22:04;;;;;;;22.30;16.92;;;14.70;99.90;;;;;;5073396;28;20083;-80
2023/04/21 11:24:33;;;;;;;23.90;16.48;;;14.70;99.90;;;;;;5073491;28;20557;-79
2023/04/21 11:27:02;;;;;;;19.75;15.93;;;14.70;99.90;;;;;;5073828;28;20044;-80
2023/04/21 11:29:30;;;;;;;24.45;16.38;;;14.60;99.90;;;;;;5073794;28;20033;-79
2023/04/21 11:31:57;;;;;;;27.85;15.98;;;14.60;99.90;;;;;;5073735;28;20123;-79
2023/04/21 11:34:25;;;;;;;25.80;16.25;;;14.70;99.90;;;;;;5072935;28;20037;-79
2023/04/21 11:36:52;;;;;;;24.00;15.15;;;14.90;99.90;;;;;;5073572;28;20047;-79
2023/04/21 11:39:21;;;;;;;26.40;16.05;;;15.10;99.90;;;;;;5073446;28;20040;-79
2023/04/21 11:41:49;;;;;;;24.02;15.15;;;15.00;99.90;;;;;;5073638;28;20090;-79
2023/04/21 11:44:35;;;;;;;24.92;17.05;;;14.80;99.90;;;;;;5072331;28;20048;-79
2023/04/21 11:47:12;;;;;;;22.00;16.30;;;14.90;99.90;;;;;;5073609;28;20046;-79
2023/04/21 11:49:45;;;;;;;24.13;17.13;;;15.10;99.90;;;;;;5073667;28;20113;-80
2023/04/21 11:52:11;;;;;;;23.85;17.60;;;15.00;99.90;;;;;;5073598;28;20047;-79
2023/04/21 11:54:38;;;;;;;30.40;16.63;;;15.00;99.90;;;;;;5073182;28;20052;-79
2023/04/21 11:57:05;;;;;;;24.80;16.33;;;14.90;99.90;;;;;;5072035;28;20087;-79
2023/04/21 11:59:31;;;;;;;22.80;16.23;;;15.10;99.90;;;;;;5073323;28;20414;-80
2023/04/21 12:01:57;;;;;;;23.20;15.50;;;15.10;99.90;;;;;;5073098;28;20048;-79
2023/04/21 12:04:24;;;;;;;28.45;16.15;;;15.30;99.90;;;;;;5073194;28;20045;-79
2023/04/21 12:07:01;;;;;;;25.05;16.20;;;15.20;99.90;;;;;;5073414;28;20111;-79
2023/04/21 12:09:28;;;;;;;26.10;16.85;;;15.20;99.90;;;;;;5073333;28;20047;-79
2023/04/21 12:12:00;;;;;;;25.77;16.42;;;15.40;99.90;;;;;;5073137;28;20500;-79
2023/04/21 12:14:26;;;;;;;24.88;16.95;;;15.30;99.90;;;;;;5073057;28;20048;-79
2023/04/21 12:16:56;;;;;;;24.88;15.88;;;15.30;99.90;;;;;;5072071;28;20067;-79
2023/04/21 12:19:34;;;;;;;29.55;17.17;;;15.40;99.90;;;;;;5073264;28;20033;-79
2023/04/21 12:22:00;;;;;;;22.48;17.65;;;15.30;99.90;;;;;;5073088;28;20080;-80
2023/04/21 12:24:26;;;;;;;22.83;15.73;;;15.20;99.90;;;;;;5073063;28;20483;-79
2023/04/21 12:26:53;;;;;;;24.52;16.50;;;15.30;99.90;;;;;;5072903;28;20128;-80
2023/04/21 12:29:18;;;;;;;23.52;17.42;;;15.30;99.90;;;;;;5073134;28;20052;-79
2023/04/21 12:31:44;;;;;;;26.77;16.85;;;15.20;99.90;;;;;;5073174;28;20040;-79